sensor_id;sensor_type;location;lat;lon;timestamp;pressure;altitude;pressure_sealevel;temperature;humidity
53715;BME280;39608;55.630;37.864;2023-03-15T00:01:47;98925.44;;;5.30;47.58
53715;BME280;39608;55.630;37.864;2023-03-15T00:06:49;98923.03;;;5.34;47.11
53715;BME280;39608;55.630;37.864;2023-03-15T00:11:51;98921.41;;;5.32;47.82
53715;BME280;39608;55.630;37.864;2023-03-15T00:16:56;98934.63;;;5.29;47.64
53715;BME280;39608;55.630;37.864;2023-03-15T00:21:58;98934.88;;;5.27;48.08
53715;BME280;39608;55.630;37.864;2023-03-15T00:27:00;98937.31;;;5.24;48.20
53715;BME280;39608;55.630;37.864;2023-03-15T00:32:03;98924.16;;;5.22;48.06
53715;BME280;39608;55.630;37.864;2023-03-15T00:37:05;98925.50;;;5.14;48.34
53715;BME280;39608;55.630;37.864;2023-03-15T00:42:07;98924.97;;;5.12;48.37
53715;BME280;39608;55.630;37.864;2023-03-15T00:47:13;98930.34;;;5.12;49.00
53715;BME280;39608;55.630;37.864;2023-03-15T00:52:15;98927.41;;;5.09;48.89
53715;BME280;39608;55.630;37.864;2023-03-15T00:57:17;98925.81;;;5.08;49.61
53715;BME280;39608;55.630;37.864;2023-03-15T01:02:21;98934.91;;;5.12;49.30
53715;BME280;39608;55.630;37.864;2023-03-15T01:07:23;98922.28;;;5.07;49.40
53715;BME280;39608;55.630;37.864;2023-03-15T01:12:25;98922.03;;;5.09;49.48
53715;BME280;39608;55.630;37.864;2023-03-15T01:17:28;98920.69;;;5.06;49.96
53715;BME280;39608;55.630;37.864;2023-03-15T01:22:30;98928.22;;;5.04;50.04
53715;BME280;39608;55.630;37.864;2023-03-15T01:27:32;98933.31;;;5.06;50.58
53715;BME280;39608;55.630;37.864;2023-03-15T01:32:35;98912.63;;;5.06;50.61
53715;BME280;39608;55.630;37.864;2023-03-15T01:37:37;98924.47;;;5.00;50.86
53715;BME280;39608;55.630;37.864;2023-03-15T01:43:09;98917.47;;;5.09;50.51
53715;BME280;39608;55.630;37.864;2023-03-15T01:48:15;98917.19;;;5.06;50.71
53715;BME280;39608;55.630;37.864;2023-03-15T01:53:18;98917.22;;;4.95;51.18
53715;BME280;39608;55.630;37.864;2023-03-15T01:58:23;98908.09;;;4.86;51.29
53715;BME280;39608;55.630;37.864;2023-03-15T02:03:30;98919.38;;;4.99;51.23
53715;BME280;39608;55.630;37.864;2023-03-15T02:08:38;98908.88;;;5.02;51.27
53715;BME280;39608;55.630;37.864;2023-03-15T02:13:44;98921.78;;;5.00;51.45
53715;BME280;39608;55.630;37.864;2023-03-15T02:18:48;98912.91;;;5.05;51.45
53715;BME280;39608;55.630;37.864;2023-03-15T02:23:58;98931.97;;;5.13;51.05
53715;BME280;39608;55.630;37.864;2023-03-15T02:29:05;98931.16;;;5.13;51.49
53715;BME280;39608;55.630;37.864;2023-03-15T02:34:07;98943.78;;;5.12;51.52
53715;BME280;39608;55.630;37.864;2023-03-15T02:39:14;98935.16;;;5.21;51.58
53715;BME280;39608;55.630;37.864;2023-03-15T02:44:21;98932.50;;;5.21;51.46
53715;BME280;39608;55.630;37.864;2023-03-15T02:49:27;98931.66;;;5.20;51.35
53715;BME280;39608;55.630;37.864;2023-03-15T02:54:31;98931.16;;;5.18;51.48
53715;BME280;39608;55.630;37.864;2023-03-15T02:59:35;98929.53;;;5.22;51.38
53715;BME280;39608;55.630;37.864;2023-03-15T03:04:38;98940.81;;;5.19;51.35
53715;BME280;39608;55.630;37.864;2023-03-15T03:09:41;98925.50;;;5.20;51.05
53715;BME280;39608;55.630;37.864;2023-03-15T03:14:44;98947.00;;;5.25;51.12
53715;BME280;39608;55.630;37.864;2023-03-15T03:19:46;98950.75;;;5.24;51.56
53715;BME280;39608;55.630;37.864;2023-03-15T03:24:48;98947.00;;;5.20;51.20
53715;BME280;39608;55.630;37.864;2023-03-15T03:29:52;98945.38;;;5.19;51.12
53715;BME280;39608;55.630;37.864;2023-03-15T03:34:53;98952.38;;;5.20;50.77
53715;BME280;39608;55.630;37.864;2023-03-15T03:39:56;98960.44;;;5.14;51.47
53715;BME280;39608;55.630;37.864;2023-03-15T03:44:59;98959.66;;;5.14;51.49
53715;BME280;39608;55.630;37.864;2023-03-15T03:50:01;98955.63;;;5.11;51.10
53715;BME280;39608;55.630;37.864;2023-03-15T03:55:04;98946.47;;;5.02;51.20
53715;BME280;39608;55.630;37.864;2023-03-15T04:00:11;98962.34;;;5.09;51.46
53715;BME280;39608;55.630;37.864;2023-03-15T04:05:13;98952.44;;;4.94;51.66
53715;BME280;39608;55.630;37.864;2023-03-15T04:10:15;98952.69;;;4.92;51.81
53715;BME280;39608;55.630;37.864;2023-03-15T04:15:19;98957.53;;;4.90;51.97
53715;BME280;39608;55.630;37.864;2023-03-15T04:20:22;98975.28;;;4.86;52.25
53715;BME280;39608;55.630;37.864;2023-03-15T04:25:25;98969.63;;;4.88;51.85
53715;BME280;39608;55.630;37.864;2023-03-15T04:30:29;98964.25;;;4.88;51.94
53715;BME280;39608;55.630;37.864;2023-03-15T04:35:33;98962.94;;;4.75;51.43
53715;BME280;39608;55.630;37.864;2023-03-15T04:40:35;98974.47;;;4.86;51.59
53715;BME280;39608;55.630;37.864;2023-03-15T04:45:39;98982.78;;;4.89;51.48
53715;BME280;39608;55.630;37.864;2023-03-15T04:50:42;98989.78;;;4.95;51.76
53715;BME280;39608;55.630;37.864;2023-03-15T04:55:43;98991.66;;;4.95;51.42
53715;BME280;39608;55.630;37.864;2023-03-15T05:00:47;98993.81;;;4.98;51.19
53715;BME280;39608;55.630;37.864;2023-03-15T05:05:49;98983.88;;;4.99;51.53
53715;BME280;39608;55.630;37.864;2023-03-15T05:10:51;98998.63;;;5.06;50.92
53715;BME280;39608;55.630;37.864;2023-03-15T05:15:55;99000.50;;;5.11;50.76
53715;BME280;39608;55.630;37.864;2023-03-15T05:20:57;99009.38;;;5.11;51.02
53715;BME280;39608;55.630;37.864;2023-03-15T05:25:59;99002.69;;;5.04;50.65
53715;BME280;39608;55.630;37.864;2023-03-15T05:31:02;99027.38;;;5.16;50.71
53715;BME280;39608;55.630;37.864;2023-03-15T05:36:07;99026.03;;;5.19;50.52
53715;BME280;39608;55.630;37.864;2023-03-15T05:41:13;99023.88;;;5.21;50.43
53715;BME280;39608;55.630;37.864;2023-03-15T05:46:19;99037.84;;;5.33;50.75
53715;BME280;39608;55.630;37.864;2023-03-15T05:51:22;99028.97;;;5.32;50.47
53715;BME280;39608;55.630;37.864;2023-03-15T05:56:24;99040.78;;;5.42;50.37
53715;BME280;39608;55.630;37.864;2023-03-15T06:01:28;99048.81;;;5.57;50.07
53715;BME280;39608;55.630;37.864;2023-03-15T06:06:30;99053.41;;;5.52;49.82
53715;BME280;39608;55.630;37.864;2023-03-15T06:11:32;99067.09;;;5.55;50.03
53715;BME280;39608;55.630;37.864;2023-03-15T06:16:35;99065.47;;;5.64;49.94
53715;BME280;39608;55.630;37.864;2023-03-15T06:21:37;99066.53;;;5.69;49.89
53715;BME280;39608;55.630;37.864;2023-03-15T06:26:39;99072.44;;;5.71;49.67
53715;BME280;39608;55.630;37.864;2023-03-15T06:31:45;99073.75;;;5.83;49.64
53715;BME280;39608;55.630;37.864;2023-03-15T06:36:49;99069.41;;;5.93;49.59
53715;BME280;39608;55.630;37.864;2023-03-15T06:41:52;99069.69;;;6.02;49.56
53715;BME280;39608;55.630;37.864;2023-03-15T06:46:59;99066.66;;;6.13;49.33
53715;BME280;39608;55.630;37.864;2023-03-15T06:52:02;99064.50;;;6.15;49.53
53715;BME280;39608;55.630;37.864;2023-03-15T06:57:04;99068.53;;;6.18;49.31
53715;BME280;39608;55.630;37.864;2023-03-15T07:02:12;99081.63;;;6.35;49.49
53715;BME280;39608;55.630;37.864;2023-03-15T07:07:15;99082.47;;;6.30;49.58
53715;BME280;39608;55.630;37.864;2023-03-15T07:12:17;99073.31;;;6.31;49.84
53715;BME280;39608;55.630;37.864;2023-03-15T07:17:20;99058.97;;;6.46;49.48
53715;BME280;39608;55.630;37.864;2023-03-15T07:22:22;99060.53;;;6.53;49.43
53715;BME280;39608;55.630;37.864;2023-03-15T07:27:24;99083.31;;;6.71;49.33
53715;BME280;39608;55.630;37.864;2023-03-15T07:32:28;99079.78;;;6.75;49.23
53715;BME280;39608;55.630;37.864;2023-03-15T07:37:31;99058.72;;;6.82;49.04
53715;BME280;39608;55.630;37.864;2023-03-15T07:42:33;99090.47;;;6.91;48.93
53715;BME280;39608;55.630;37.864;2023-03-15T07:47:36;99073.53;;;6.80;49.24
53715;BME280;39608;55.630;37.864;2023-03-15T07:52:38;99128.41;;;6.99;48.77
53715;BME280;39608;55.630;37.864;2023-03-15T07:57:40;99112.97;;;7.10;48.97
53715;BME280;39608;55.630;37.864;2023-03-15T08:02:44;99122.63;;;7.16;48.92
53715;BME280;39608;55.630;37.864;2023-03-15T08:07:47;99132.09;;;7.14;49.04
53715;BME280;39608;55.630;37.864;2023-03-15T08:12:50;99133.72;;;7.15;48.95
53715;BME280;39608;55.630;37.864;2023-03-15T08:17:54;99129.09;;;7.21;49.00
53715;BME280;39608;55.630;37.864;2023-03-15T08:22:56;99129.88;;;7.21;49.17
53715;BME280;39608;55.630;37.864;2023-03-15T08:27:59;99132.56;;;7.21;49.10
53715;BME280;39608;55.630;37.864;2023-03-15T08:33:02;99133.63;;;7.25;49.15
53715;BME280;39608;55.630;37.864;2023-03-15T08:38:04;99128.72;;;7.27;49.12
53715;BME280;39608;55.630;37.864;2023-03-15T08:43:06;99125.97;;;7.38;49.06
53715;BME280;39608;55.630;37.864;2023-03-15T08:48:11;99116.69;;;7.49;49.07
53715;BME280;39608;55.630;37.864;2023-03-15T08:53:13;99144.41;;;7.60;48.90
53715;BME280;39608;55.630;37.864;2023-03-15T08:58:16;99112.41;;;7.72;48.90
53715;BME280;39608;55.630;37.864;2023-03-15T09:03:19;99129.59;;;7.81;48.80
53715;BME280;39608;55.630;37.864;2023-03-15T09:08:25;99120.13;;;7.84;48.84
53715;BME280;39608;55.630;37.864;2023-03-15T09:13:27;99103.50;;;7.71;49.08
53715;BME280;39608;55.630;37.864;2023-03-15T09:18:30;99112.69;;;7.70;49.27
53715;BME280;39608;55.630;37.864;2023-03-15T09:23:33;99126.75;;;7.67;49.31
53715;BME280;39608;55.630;37.864;2023-03-15T09:28:35;99130.50;;;7.71;49.36
53715;BME280;39608;55.630;37.864;2023-03-15T09:33:38;99115.59;;;7.79;49.42
53715;BME280;39608;55.630;37.864;2023-03-15T09:38:42;99118.38;;;7.93;49.04
53715;BME280;39608;55.630;37.864;2023-03-15T09:43:58;99071.97;;;8.15;48.77
53715;BME280;39608;55.630;37.864;2023-03-15T09:49:08;99116.25;;;8.38;48.76
53715;BME280;39608;55.630;37.864;2023-03-15T09:54:15;99101.31;;;8.46;48.38
53715;BME280;39608;55.630;37.864;2023-03-15T09:59:19;99119.75;;;8.82;47.57
53715;BME280;39608;55.630;37.864;2023-03-15T10:04:27;99118.84;;;9.06;47.72
53715;BME280;39608;55.630;37.864;2023-03-15T10:09:31;99083.25;;;9.18;47.03
53715;BME280;39608;55.630;37.864;2023-03-15T10:15:02;99104.66;;;9.47;47.02
53715;BME280;39608;55.630;37.864;2023-03-15T10:20:12;99093.31;;;9.45;46.64
53715;BME280;39608;55.630;37.864;2023-03-15T10:25:20;99096.66;;;9.23;46.67
53715;BME280;39608;55.630;37.864;2023-03-15T10:30:27;99076.72;;;9.19;46.97
53715;BME280;39608;55.630;37.864;2023-03-15T10:35:32;99091.88;;;9.34;46.92
53715;BME280;39608;55.630;37.864;2023-03-15T10:40:39;99074.97;;;9.42;46.52
53715;BME280;39608;55.630;37.864;2023-03-15T10:45:46;99090.06;;;9.76;46.12
53715;BME280;39608;55.630;37.864;2023-03-15T10:50:49;99111.44;;;10.05;45.58
53715;BME280;39608;55.630;37.864;2023-03-15T10:55:58;99108.94;;;10.37;45.19
53715;BME280;39608;55.630;37.864;2023-03-15T11:01:03;99117.09;;;10.37;44.54
53715;BME280;39608;55.630;37.864;2023-03-15T11:06:20;99115.22;;;10.32;45.12
53715;BME280;39608;55.630;37.864;2023-03-15T11:11:23;99123.97;;;10.01;45.03
53715;BME280;39608;55.630;37.864;2023-03-15T11:16:25;99114.03;;;9.69;45.73
53715;BME280;39608;55.630;37.864;2023-03-15T11:21:32;99106.66;;;9.41;46.18
53715;BME280;39608;55.630;37.864;2023-03-15T11:26:37;99105.94;;;9.50;46.06
53715;BME280;39608;55.630;37.864;2023-03-15T11:31:39;99107.00;;;9.82;45.59
53715;BME280;39608;55.630;37.864;2023-03-15T11:36:46;99103.59;;;10.04;45.67
53715;BME280;39608;55.630;37.864;2023-03-15T11:41:54;99103.31;;;10.05;45.38
53715;BME280;39608;55.630;37.864;2023-03-15T11:47:00;99098.19;;;10.32;45.33
53715;BME280;39608;55.630;37.864;2023-03-15T11:52:07;99123.97;;;10.93;43.96
53715;BME280;39608;55.630;37.864;2023-03-15T11:57:38;99118.28;;;11.04;43.71
53715;BME280;39608;55.630;37.864;2023-03-15T12:02:47;99139.19;;;10.81;43.64
53715;BME280;39608;55.630;37.864;2023-03-15T12:08:16;99112.75;;;10.22;44.76
53715;BME280;39608;55.630;37.864;2023-03-15T12:13:19;99126.69;;;10.15;44.73
53715;BME280;39608;55.630;37.864;2023-03-15T12:18:32;99132.88;;;9.74;45.38
53715;BME280;39608;55.630;37.864;2023-03-15T12:23:45;99120.66;;;9.76;45.44
53715;BME280;39608;55.630;37.864;2023-03-15T12:29:01;99121.16;;;9.79;45.30
53715;BME280;39608;55.630;37.864;2023-03-15T12:34:04;99121.38;;;9.82;45.03
53715;BME280;39608;55.630;37.864;2023-03-15T12:39:21;99121.47;;;9.91;45.41
53715;BME280;39608;55.630;37.864;2023-03-15T12:44:38;99109.25;;;9.93;44.89
53715;BME280;39608;55.630;37.864;2023-03-15T12:49:42;99130.69;;;10.18;44.53
53715;BME280;39608;55.630;37.864;2023-03-15T12:54:50;99121.91;;;10.76;43.67
53715;BME280;39608;55.630;37.864;2023-03-15T12:59:56;99117.94;;;10.96;43.16
53715;BME280;39608;55.630;37.864;2023-03-15T13:05:08;99131.22;;;11.43;42.58
53715;BME280;39608;55.630;37.864;2023-03-15T13:10:29;99128.84;;;12.05;41.86
53715;BME280;39608;55.630;37.864;2023-03-15T13:15:37;99124.75;;;12.33;41.32
53715;BME280;39608;55.630;37.864;2023-03-15T13:20:50;99116.25;;;12.26;40.73
53715;BME280;39608;55.630;37.864;2023-03-15T13:26:07;99128.69;;;12.76;40.51
53715;BME280;39608;55.630;37.864;2023-03-15T13:31:19;99124.84;;;12.86;40.01
53715;BME280;39608;55.630;37.864;2023-03-15T13:36:22;99132.88;;;13.35;40.70
53715;BME280;39608;55.630;37.864;2023-03-15T13:41:28;99121.78;;;12.70;39.44
53715;BME280;39608;55.630;37.864;2023-03-15T13:46:30;99116.44;;;12.30;39.24
53715;BME280;39608;55.630;37.864;2023-03-15T13:51:34;99118.03;;;11.59;40.31
53715;BME280;39608;55.630;37.864;2023-03-15T13:56:45;99125.06;;;11.29;41.03
53715;BME280;39608;55.630;37.864;2023-03-15T14:01:49;99114.84;;;10.11;42.58
53715;BME280;39608;55.630;37.864;2023-03-15T14:07:07;99126.44;;;9.56;43.64
53715;BME280;39608;55.630;37.864;2023-03-15T14:12:20;99120.84;;;9.00;44.92
53715;BME280;39608;55.630;37.864;2023-03-15T14:17:26;99124.72;;;8.75;45.19
53715;BME280;39608;55.630;37.864;2023-03-15T14:22:28;99127.34;;;8.61;45.65
53715;BME280;39608;55.630;37.864;2023-03-15T14:27:32;99124.56;;;8.66;45.79
53715;BME280;39608;55.630;37.864;2023-03-15T14:32:35;99110.16;;;8.52;46.07
53715;BME280;39608;55.630;37.864;2023-03-15T14:37:40;99118.44;;;8.36;46.38
53715;BME280;39608;55.630;37.864;2023-03-15T14:42:46;99127.47;;;8.27;46.86
53715;BME280;39608;55.630;37.864;2023-03-15T14:47:50;99128.53;;;8.07;46.81
53715;BME280;39608;55.630;37.864;2023-03-15T14:52:53;99136.28;;;7.89;47.37
53715;BME280;39608;55.630;37.864;2023-03-15T14:57:58;99125.91;;;7.72;47.29
53715;BME280;39608;55.630;37.864;2023-03-15T15:03:01;99133.34;;;7.56;47.88
53715;BME280;39608;55.630;37.864;2023-03-15T15:08:08;99110.69;;;7.28;48.04
53715;BME280;39608;55.630;37.864;2023-03-15T15:13:15;99133.13;;;7.18;48.38
53715;BME280;39608;55.630;37.864;2023-03-15T15:18:19;99130.38;;;6.89;48.57
53715;BME280;39608;55.630;37.864;2023-03-15T15:23:24;99135.03;;;6.78;49.05
53715;BME280;39608;55.630;37.864;2023-03-15T15:28:30;99153.69;;;6.64;49.16
53715;BME280;39608;55.630;37.864;2023-03-15T15:33:33;99148.44;;;6.38;49.44
53715;BME280;39608;55.630;37.864;2023-03-15T15:38:36;99170.00;;;6.28;50.00
53715;BME280;39608;55.630;37.864;2023-03-15T15:43:41;99169.75;;;6.19;50.11
53715;BME280;39608;55.630;37.864;2023-03-15T15:48:46;99159.31;;;6.07;50.23
53715;BME280;39608;55.630;37.864;2023-03-15T15:53:48;99166.03;;;5.94;50.63
53715;BME280;39608;55.630;37.864;2023-03-15T15:58:51;99164.44;;;5.93;50.26
53715;BME280;39608;55.630;37.864;2023-03-15T16:03:53;99180.06;;;5.81;50.38
53715;BME280;39608;55.630;37.864;2023-03-15T16:08:59;99182.47;;;5.88;50.59
53715;BME280;39608;55.630;37.864;2023-03-15T16:14:02;99187.59;;;5.74;50.69
53715;BME280;39608;55.630;37.864;2023-03-15T16:19:04;99178.72;;;5.63;50.84
53715;BME280;39608;55.630;37.864;2023-03-15T16:24:10;99197.28;;;5.59;50.83
53715;BME280;39608;55.630;37.864;2023-03-15T16:29:20;99198.91;;;5.60;50.82
53715;BME280;39608;55.630;37.864;2023-03-15T16:34:23;99209.09;;;5.48;51.26
53715;BME280;39608;55.630;37.864;2023-03-15T16:39:26;99209.66;;;5.45;51.21
53715;BME280;39608;55.630;37.864;2023-03-15T16:44:29;99206.16;;;5.44;50.92
53715;BME280;39608;55.630;37.864;2023-03-15T16:49:31;99200.50;;;5.41;51.24
53715;BME280;39608;55.630;37.864;2023-03-15T16:54:34;99201.84;;;5.38;50.89
53715;BME280;39608;55.630;37.864;2023-03-15T16:59:37;99203.19;;;5.41;50.94
53715;BME280;39608;55.630;37.864;2023-03-15T17:04:39;99205.09;;;5.40;51.05
53715;BME280;39608;55.630;37.864;2023-03-15T17:09:43;99216.63;;;5.41;51.20
53715;BME280;39608;55.630;37.864;2023-03-15T17:14:47;99227.41;;;5.46;51.27
53715;BME280;39608;55.630;37.864;2023-03-15T17:19:49;99225.78;;;5.45;51.07
53715;BME280;39608;55.630;37.864;2023-03-15T17:24:52;99202.66;;;5.39;51.41
53715;BME280;39608;55.630;37.864;2023-03-15T17:29:56;99229.00;;;5.47;50.81
53715;BME280;39608;55.630;37.864;2023-03-15T17:34:58;99234.66;;;5.45;50.89
53715;BME280;39608;55.630;37.864;2023-03-15T17:40:00;99225.25;;;5.43;50.84
53715;BME280;39608;55.630;37.864;2023-03-15T17:45:16;99231.97;;;5.51;50.66
53715;BME280;39608;55.630;37.864;2023-03-15T17:50:20;99233.84;;;5.45;50.65
53715;BME280;39608;55.630;37.864;2023-03-15T17:55:24;99229.53;;;5.44;51.22
53715;BME280;39608;55.630;37.864;2023-03-15T18:00:28;99212.34;;;5.40;51.34
53715;BME280;39608;55.630;37.864;2023-03-15T18:05:32;99210.72;;;5.34;50.72
53715;BME280;39608;55.630;37.864;2023-03-15T18:10:35;99208.31;;;5.32;51.09
53715;BME280;39608;55.630;37.864;2023-03-15T18:15:39;99199.97;;;5.34;51.25
53715;BME280;39608;55.630;37.864;2023-03-15T18:20:41;99216.91;;;5.34;51.07
53715;BME280;39608;55.630;37.864;2023-03-15T18:25:44;99213.94;;;5.36;51.11
53715;BME280;39608;55.630;37.864;2023-03-15T18:30:49;99205.09;;;5.40;50.81
53715;BME280;39608;55.630;37.864;2023-03-15T18:35:52;99197.81;;;5.36;50.79
53715;BME280;39608;55.630;37.864;2023-03-15T18:40:55;99193.25;;;5.36;50.84
53715;BME280;39608;55.630;37.864;2023-03-15T18:45:58;99181.41;;;5.17;51.54
53715;BME280;39608;55.630;37.864;2023-03-15T18:51:00;99209.38;;;5.31;51.00
53715;BME280;39608;55.630;37.864;2023-03-15T18:56:02;99212.06;;;5.31;51.12
53715;BME280;39608;55.630;37.864;2023-03-15T19:01:07;99185.97;;;5.31;51.18
53715;BME280;39608;55.630;37.864;2023-03-15T19:06:11;99190.28;;;5.32;51.59
53715;BME280;39608;55.630;37.864;2023-03-15T19:11:14;99190.81;;;5.29;51.61
53715;BME280;39608;55.630;37.864;2023-03-15T19:16:18;99191.09;;;5.33;51.91
53715;BME280;39608;55.630;37.864;2023-03-15T19:21:20;99188.94;;;5.30;51.53
53715;BME280;39608;55.630;37.864;2023-03-15T19:26:22;99194.56;;;5.28;51.77
53715;BME280;39608;55.630;37.864;2023-03-15T19:31:33;99187.88;;;5.31;52.22
53715;BME280;39608;55.630;37.864;2023-03-15T19:36:35;99195.94;;;5.21;52.88
53715;BME280;39608;55.630;37.864;2023-03-15T19:41:37;99187.31;;;5.19;52.70
53715;BME280;39608;55.630;37.864;2023-03-15T19:46:42;99182.75;;;5.19;53.04
53715;BME280;39608;55.630;37.864;2023-03-15T19:51:44;99174.69;;;5.14;52.87
53715;BME280;39608;55.630;37.864;2023-03-15T19:56:48;99169.84;;;5.11;52.94
53715;BME280;39608;55.630;37.864;2023-03-15T20:01:51;99183.56;;;5.09;53.21
53715;BME280;39608;55.630;37.864;2023-03-15T20:06:53;99176.56;;;5.08;53.64
53715;BME280;39608;55.630;37.864;2023-03-15T20:11:55;99172.50;;;5.06;53.55
53715;BME280;39608;55.630;37.864;2023-03-15T20:16:59;99164.47;;;5.11;53.54
53715;BME280;39608;55.630;37.864;2023-03-15T20:22:01;99163.38;;;5.07;53.72
53715;BME280;39608;55.630;37.864;2023-03-15T20:27:03;99167.13;;;5.06;53.76
53715;BME280;39608;55.630;37.864;2023-03-15T20:32:06;99167.69;;;5.08;54.15
53715;BME280;39608;55.630;37.864;2023-03-15T20:37:08;99158.53;;;4.99;54.63
53715;BME280;39608;55.630;37.864;2023-03-15T20:42:12;99173.03;;;4.97;56.26
53715;BME280;39608;55.630;37.864;2023-03-15T20:47:16;99172.22;;;4.82;57.05
53715;BME280;39608;55.630;37.864;2023-03-15T20:52:18;99166.75;;;4.56;57.23
53715;BME280;39608;55.630;37.864;2023-03-15T20:57:20;99173.38;;;4.38;58.21
53715;BME280;39608;55.630;37.864;2023-03-15T21:02:23;99177.44;;;4.40;58.28
53715;BME280;39608;55.630;37.864;2023-03-15T21:07:25;99164.22;;;4.28;58.40
53715;BME280;39608;55.630;37.864;2023-03-15T21:12:27;99176.00;;;4.17;59.19
53715;BME280;39608;55.630;37.864;2023-03-15T21:17:31;99170.59;;;4.12;58.95
53715;BME280;39608;55.630;37.864;2023-03-15T21:22:33;99181.78;;;3.99;59.77
53715;BME280;39608;55.630;37.864;2023-03-15T21:27:35;99172.88;;;3.93;60.11
53715;BME280;39608;55.630;37.864;2023-03-15T21:32:38;99169.41;;;3.92;60.64
53715;BME280;39608;55.630;37.864;2023-03-15T21:37:41;99176.41;;;3.99;60.60
53715;BME280;39608;55.630;37.864;2023-03-15T21:42:43;99177.50;;;4.03;60.99
53715;BME280;39608;55.630;37.864;2023-03-15T21:47:48;99176.75;;;4.13;61.46
53715;BME280;39608;55.630;37.864;2023-03-15T21:52:52;99162.53;;;4.12;59.96
53715;BME280;39608;55.630;37.864;2023-03-15T21:57:54;99170.31;;;4.14;60.77
53715;BME280;39608;55.630;37.864;2023-03-15T22:02:57;99173.88;;;4.24;60.81
53715;BME280;39608;55.630;37.864;2023-03-15T22:08:00;99182.47;;;4.26;60.74
53715;BME280;39608;55.630;37.864;2023-03-15T22:13:02;99176.34;;;4.31;60.66
53715;BME280;39608;55.630;37.864;2023-03-15T22:18:05;99177.16;;;4.37;60.81
53715;BME280;39608;55.630;37.864;2023-03-15T22:23:07;99169.38;;;4.35;60.85
53715;BME280;39608;55.630;37.864;2023-03-15T22:28:09;99180.13;;;4.40;60.82
53715;BME280;39608;55.630;37.864;2023-03-15T22:33:13;99181.72;;;4.41;60.67
53715;BME280;39608;55.630;37.864;2023-03-15T22:38:15;99185.50;;;4.45;60.51
53715;BME280;39608;55.630;37.864;2023-03-15T22:43:17;99185.81;;;4.49;60.27
53715;BME280;39608;55.630;37.864;2023-03-15T22:48:20;99180.69;;;4.53;59.97
53715;BME280;39608;55.630;37.864;2023-03-15T22:53:25;99171.84;;;4.52;60.49
53715;BME280;39608;55.630;37.864;2023-03-15T22:58:27;99172.91;;;4.51;60.37
53715;BME280;39608;55.630;37.864;2023-03-15T23:03:30;99187.72;;;4.59;60.87
53715;BME280;39608;55.630;37.864;2023-03-15T23:08:34;99185.53;;;4.56;60.29
53715;BME280;39608;55.630;37.864;2023-03-15T23:13:36;99176.94;;;4.54;60.70
53715;BME280;39608;55.630;37.864;2023-03-15T23:18:40;99174.53;;;4.52;60.64
53715;BME280;39608;55.630;37.864;2023-03-15T23:23:42;99172.88;;;4.46;61.00
53715;BME280;39608;55.630;37.864;2023-03-15T23:28:44;99161.84;;;4.37;61.32
53715;BME280;39608;55.630;37.864;2023-03-15T23:33:47;99163.47;;;4.38;62.56
53715;BME280;39608;55.630;37.864;2023-03-15T23:38:49;99167.97;;;4.27;61.49
53715;BME280;39608;55.630;37.864;2023-03-15T23:43:52;99160.94;;;4.16;62.49
53715;BME280;39608;55.630;37.864;2023-03-15T23:48:56;99155.28;;;4.13;63.00
53715;BME280;39608;55.630;37.864;2023-03-15T23:53:58;99149.09;;;4.07;62.71
53715;BME280;39608;55.630;37.864;2023-03-15T23:59:00;99155.81;;;4.09;63.61
